Time;durP1;ratioP1;P1;durP2;ratioP2;P2;SDS_P1;SDS_P2;PMS_P1;PMS_P2;Temp;Humidity;BMP_temperature;BMP_pressure;BME280_temperature;BME280_humidity;BME280_pressure;Samples;Min_cycle;Max_cycle;Signal;HPM_P1;HPM_P2
2022/06/24 00:00:14;;;;;;;5.53;2.83;;;;;;;22.51;58.35;100963.13;1627187;85;21074;-51
2022/06/24 00:02:47;;;;;;;2.87;2.58;;;;;;;22.53;58.35;100955.92;1652629;85;21546;-52
2022/06/24 00:05:14;;;;;;;3.60;2.62;;;;;;;22.56;58.07;100959.70;1633740;87;21579;-51
2022/06/24 00:07:50;;;;;;;4.00;2.70;;;;;;;22.57;57.71;100956.94;1643625;85;21106;-53
2022/06/24 00:10:29;;;;;;;2.90;2.70;;;;;;;22.58;57.64;100957.36;1631774;87;21069;-50
2022/06/24 00:13:02;;;;;;;4.55;2.77;;;;;;;22.64;57.36;100954.29;1644783;86;21022;-50
2022/06/24 00:15:34;;;;;;;2.62;2.42;;;;;;;22.65;57.16;100950.66;1633072;87;21092;-51
2022/06/24 00:18:19;;;;;;;3.65;2.40;;;;;;;22.60;57.16;100947.50;1644851;85;21038;-50
2022/06/24 00:20:49;;;;;;;2.67;2.37;;;;;;;22.59;56.94;100955.06;1634011;87;21075;-56
2022/06/24 00:23:20;;;;;;;3.45;2.72;;;;;;;22.57;57.15;100957.41;1644261;85;21050;-50
2022/06/24 00:25:47;;;;;;;3.45;2.25;;;;;;;22.56;57.25;100952.60;1620508;87;21054;-50
2022/06/24 00:28:14;;;;;;;3.72;2.55;;;;;;;22.56;57.35;100953.93;1649344;85;21066;-51
2022/06/24 00:30:45;;;;;;;3.05;2.62;;;;;;;22.56;57.35;100948.63;1632876;87;21070;-52
2022/06/24 00:33:24;;;;;;;3.00;2.72;;;;;;;22.55;57.49;100952.22;1641565;86;21114;-53
2022/06/24 00:35:54;;;;;;;3.55;2.77;;;;;;;22.56;57.58;100958.38;1588671;90;21080;-53
2022/06/24 00:38:36;;;;;;;4.65;2.60;;;;;;;22.56;57.62;100959.23;1620552;86;21038;-50
2022/06/24 00:41:07;;;;;;;2.70;2.50;;;;;;;22.56;57.66;100951.28;1621449;86;21590;-51
2022/06/24 00:43:45;;;;;;;2.87;2.58;;;;;;;22.55;57.71;100954.02;1619416;86;21085;-51
2022/06/24 00:46:25;;;;;;;2.77;2.58;;;;;;;22.52;57.73;100959.04;1621560;88;21082;-51
2022/06/24 00:48:55;;;;;;;3.17;2.87;;;;;;;22.51;57.86;100944.56;1658196;84;21089;-51
2022/06/24 00:51:22;;;;;;;3.83;3.17;;;;;;;22.47;57.83;100949.23;1669355;85;21054;-50
2022/06/24 00:53:53;;;;;;;3.37;2.70;;;;;;;22.43;57.98;100937.14;1669262;84;21090;-53
2022/06/24 00:56:24;;;;;;;2.58;2.37;;;;;;;22.45;58.13;100937.89;1669151;85;21067;-51
2022/06/24 00:58:56;;;;;;;4.70;2.42;;;;;;;22.42;58.11;100935.43;1670277;84;21026;-52
2022/06/24 01:01:39;;;;;;;3.00;2.65;;;;;;;22.42;58.08;100936.75;1669535;84;21143;-51
2022/06/24 01:04:08;;;;;;;3.05;2.30;;;;;;;22.41;58.04;100939.05;1669581;84;21087;-53
2022/06/24 01:06:36;;;;;;;2.95;2.50;;;;;;;22.42;57.95;100940.73;1669742;84;21074;-53
2022/06/24 01:09:03;;;;;;;6.20;2.47;;;;;;;22.40;58.10;100939.98;1669500;84;21060;-52
2022/06/24 01:11:36;;;;;;;3.47;2.90;;;;;;;22.43;58.01;100939.80;1667946;85;21065;-55
2022/06/24 01:14:03;;;;;;;2.58;2.37;;;;;;;22.39;57.96;100943.61;1668844;85;21019;-51
2022/06/24 01:16:30;;;;;;;2.55;2.35;;;;;;;22.38;57.96;100941.89;1667331;85;21027;-54
2022/06/24 01:19:05;;;;;;;4.40;2.58;;;;;;;22.40;58.02;100949.27;1667810;84;21023;-51
2022/06/24 01:21:40;;;;;;;2.90;2.70;;;;;;;22.39;58.13;100946.26;1652982;84;21067;-53
2022/06/24 01:24:15;;;;;;;3.33;2.50;;;;;;;22.40;58.25;100942.64;1618918;87;21046;-50
2022/06/24 01:26:47;;;;;;;3.40;2.50;;;;;;;22.40;58.07;100939.98;1622787;87;21103;-51
2022/06/24 01:29:17;;;;;;;3.40;2.65;;;;;;;22.39;58.12;100934.33;1576596;89;21156;-52
2022/06/24 01:31:48;;;;;;;2.90;2.70;;;;;;;22.40;58.09;100939.98;1584051;88;21058;-53
2022/06/24 01:34:13;;;;;;;3.65;2.87;;;;;;;22.38;58.23;100939.74;1661994;85;21058;-52
2022/06/24 01:36:40;;;;;;;2.90;2.30;;;;;;;22.35;58.30;100943.45;1662061;85;21082;-50
2022/06/24 01:39:07;;;;;;;3.40;2.60;;;;;;;22.36;58.34;100933.20;1662479;85;21583;-52
2022/06/24 01:41:36;;;;;;;3.62;2.90;;;;;;;22.34;58.44;100932.45;1662262;85;21071;-52
2022/06/24 01:44:04;;;;;;;2.80;2.58;;;;;;;22.33;58.55;100933.42;1662444;86;21436;-53
2022/06/24 01:46:31;;;;;;;2.95;2.62;;;;;;;22.33;58.67;100922.81;1662139;85;21090;-49
2022/06/24 01:48:58;;;;;;;3.42;2.80;;;;;;;22.33;58.55;100930.77;1659847;85;21131;-55
2022/06/24 01:51:25;;;;;;;3.30;2.92;;;;;;;22.37;58.49;100936.70;1653246;85;21558;-51
2022/06/24 01:53:53;;;;;;;3.10;2.80;;;;;;;22.36;58.45;100937.17;1653053;85;21074;-54
2022/06/24 01:56:20;;;;;;;3.47;2.50;;;;;;;22.33;58.60;100941.38;1653295;85;21090;-51
2022/06/24 01:58:47;;;;;;;4.17;2.77;;;;;;;22.33;58.76;100940.05;1653366;85;21091;-53
2022/06/24 02:01:14;;;;;;;4.58;2.98;;;;;;;22.36;58.65;100936.34;1653155;87;21072;-51
2022/06/24 02:03:41;;;;;;;3.15;2.80;;;;;;;22.35;58.61;100942.12;1653288;85;21050;-51
2022/06/24 02:06:11;;;;;;;4.08;2.75;;;;;;;22.36;58.50;100943.80;1653082;85;21094;-52
2022/06/24 02:08:38;;;;;;;3.17;2.72;;;;;;;22.36;58.43;100942.47;1653328;85;21018;-52
2022/06/24 02:13:51;;;;;;;4.33;2.35;;;;;;;22.42;58.29;100943.88;1650168;87;21024;-52
2022/06/24 02:16:21;;;;;;;3.83;2.60;;;;;;;22.39;58.21;100943.61;1653292;85;21136;-51
2022/06/24 02:18:49;;;;;;;3.10;2.80;;;;;;;22.38;58.30;100948.52;1653306;85;21516;-54
2022/06/24 02:21:16;;;;;;;2.60;2.33;;;;;;;22.38;58.49;100946.38;1663525;84;21062;-51
2022/06/24 02:23:43;;;;;;;3.83;2.33;;;;;;;22.37;58.51;100950.81;1669304;85;21093;-53
2022/06/24 02:26:10;;;;;;;2.55;2.35;;;;;;;22.40;58.49;100947.12;1717675;81;21058;-51
2022/06/24 02:28:37;;;;;;;3.95;2.70;;;;;;;22.36;58.35;100950.42;1742597;81;21488;-52
2022/06/24 02:31:04;;;;;;;5.00;2.40;;;;;;;22.36;58.31;100946.45;1742447;81;21536;-51
2022/06/24 02:33:31;;;;;;;3.10;2.90;;;;;;;22.39;58.07;100946.73;1743462;82;21040;-50
2022/06/24 02:35:58;;;;;;;6.35;2.58;;;;;;;22.36;58.01;100945.13;1744281;81;21471;-53
2022/06/24 02:38:25;;;;;;;3.15;2.85;;;;;;;22.35;58.04;100947.42;1708547;83;21006;-51
2022/06/24 02:40:52;;;;;;;7.62;2.50;;;;;;;22.35;58.00;100940.79;1706634;83;21077;-50
2022/06/24 02:43:28;;;;;;;5.53;2.60;;;;;;;22.38;57.90;100943.22;1705449;83;21045;-51
2022/06/24 02:45:59;;;;;;;2.83;2.60;;;;;;;22.40;57.76;100942.64;1705663;83;21554;-52
2022/06/24 02:48:26;;;;;;;2.60;2.37;;;;;;;22.41;57.62;100944.35;1705916;83;21490;-52
2022/06/24 02:50:55;;;;;;;2.62;2.42;;;;;;;22.38;57.67;100948.52;1705470;83;21065;-51
2022/06/24 02:53:22;;;;;;;3.02;2.60;;;;;;;22.37;57.72;100949.49;1705690;83;21458;-51
2022/06/24 02:55:52;;;;;;;4.72;2.87;;;;;;;22.37;57.75;100953.47;1707135;83;21545;-50
2022/06/24 02:58:19;;;;;;;2.72;2.50;;;;;;;22.37;57.77;100951.28;1745134;81;21483;-51
2022/06/24 03:00:46;;;;;;;3.42;2.60;;;;;;;22.36;57.78;100949.10;1744364;81;21061;-51
2022/06/24 03:03:16;;;;;;;6.30;2.90;;;;;;;22.36;57.77;100946.45;1741840;81;21061;-52
2022/06/24 03:05:42;;;;;;;4.60;3.00;;;;;;;22.37;57.67;100946.84;1742784;81;21038;-52
2022/06/24 03:08:12;;;;;;;4.90;2.55;;;;;;;22.35;57.67;100954.05;1707480;83;21037;-49
2022/06/24 03:10:39;;;;;;;2.85;2.65;;;;;;;22.34;57.75;100953.66;1744456;81;21011;-52
2022/06/24 03:13:07;;;;;;;3.65;2.62;;;;;;;22.36;57.84;100953.58;1744465;81;21483;-50
2022/06/24 03:15:34;;;;;;;3.27;2.50;;;;;;;22.35;57.97;100947.42;1742965;81;21030;-54
2022/06/24 03:18:03;;;;;;;5.62;2.95;;;;;;;22.36;58.00;100953.08;1741297;81;21047;-53
2022/06/24 03:20:30;;;;;;;5.67;3.35;;;;;;;22.35;58.03;100947.42;1696162;83;21578;-52
2022/06/24 03:22:57;;;;;;;4.67;3.08;;;;;;;22.37;57.99;100954.80;1707442;83;21013;-52
2022/06/24 03:25:24;;;;;;;4.33;2.98;;;;;;;22.40;57.88;100952.42;1703940;83;21069;-52
2022/06/24 03:27:51;;;;;;;2.80;2.42;;;;;;;22.43;57.82;100957.03;1710271;83;21495;-51
2022/06/24 03:30:18;;;;;;;3.42;2.83;;;;;;;22.45;57.77;100961.75;1743553;81;21058;-52
2022/06/24 03:32:45;;;;;;;3.00;2.70;;;;;;;22.45;57.70;100953.80;1741221;81;20983;-51
2022/06/24 03:35:12;;;;;;;2.90;2.70;;;;;;;22.49;57.74;100965.03;1741228;81;21050;-50
2022/06/24 03:37:38;;;;;;;5.42;2.90;;;;;;;22.52;57.60;100965.67;1705959;83;21540;-52
2022/06/24 03:40:08;;;;;;;5.47;2.90;;;;;;;22.57;57.50;100967.55;1705719;83;21030;-51
2022/06/24 03:42:35;;;;;;;2.83;2.55;;;;;;;22.57;57.31;100974.65;1706608;83;21049;-50
2022/06/24 03:45:02;;;;;;;3.35;3.02;;;;;;;22.55;57.48;100974.77;1708728;83;21006;-52
2022/06/24 03:47:30;;;;;;;3.95;3.30;;;;;;;22.55;57.64;100964.15;1744535;81;20999;-50
2022/06/24 03:49:57;;;;;;;3.75;2.90;;;;;;;22.56;57.62;100960.56;1736586;82;21074;-50
2022/06/24 03:52:24;;;;;;;2.65;2.45;;;;;;;22.55;57.73;100965.48;1697843;84;21553;-52
2022/06/24 03:54:51;;;;;;;2.77;2.58;;;;;;;22.56;57.72;100964.54;1688521;84;21014;-56
2022/06/24 03:57:18;;;;;;;3.70;3.02;;;;;;;22.62;57.38;100966.80;1700069;84;21074;-52
2022/06/24 03:59:45;;;;;;;4.17;2.72;;;;;;;22.61;57.28;100958.46;1701917;84;21034;-52
2022/06/24 04:02:12;;;;;;;3.25;2.87;;;;;;;22.64;56.86;100962.25;1701273;84;21066;-55
2022/06/24 04:04:39;;;;;;;5.28;2.83;;;;;;;22.68;56.60;100960.22;1735645;81;21011;-51
2022/06/24 04:07:06;;;;;;;5.30;2.85;;;;;;;22.73;56.62;100967.88;1733484;81;21066;-54
2022/06/24 04:09:33;;;;;;;3.05;2.75;;;;;;;22.80;56.76;100969.13;1729733;81;21023;-51
2022/06/24 04:12:00;;;;;;;4.60;2.70;;;;;;;22.91;56.64;100969.25;1733548;81;21050;-50
2022/06/24 04:17:13;;;;;;;2.83;2.52;;;;;;;23.00;56.12;100968.63;1729702;81;21050;-50
2022/06/24 04:19:40;;;;;;;4.80;2.85;;;;;;;23.00;55.62;100973.94;1735239;81;20983;-50
2022/06/24 04:22:07;;;;;;;3.30;2.80;;;;;;;23.05;55.29;100975.77;1734363;81;21070;-54
2022/06/24 04:24:34;;;;;;;3.85;2.67;;;;;;;23.06;55.14;100978.31;1735665;82;21050;-50
2022/06/24 04:27:01;;;;;;;2.62;2.37;;;;;;;23.10;54.99;100977.64;1736576;81;21011;-48
2022/06/24 04:29:28;;;;;;;3.70;2.50;;;;;;;23.14;54.64;100982.60;1701050;84;21070;-49
2022/06/24 04:31:54;;;;;;;2.83;2.37;;;;;;;23.16;54.18;100982.52;1699693;84;21022;-51
2022/06/24 04:34:21;;;;;;;3.52;2.50;;;;;;;23.18;54.18;100984.59;1695098;84;20999;-48
2022/06/24 04:36:48;;;;;;;4.60;2.70;;;;;;;23.17;54.14;100979.75;1698220;84;20999;-50
2022/06/24 04:39:15;;;;;;;3.08;2.70;;;;;;;23.18;54.25;100969.98;1698232;84;21006;-49
2022/06/24 04:41:42;;;;;;;4.33;2.85;;;;;;;23.21;54.15;100980.37;1700381;84;21553;-50
2022/06/24 04:44:09;;;;;;;5.30;2.58;;;;;;;23.23;53.80;100978.45;1736497;81;21007;-50
2022/06/24 04:46:36;;;;;;;2.90;2.70;;;;;;;23.24;53.57;100988.13;1733277;81;21059;-49
2022/06/24 04:49:03;;;;;;;3.10;2.47;;;;;;;23.25;53.53;100993.80;1700367;84;21042;-50
2022/06/24 04:51:30;;;;;;;3.60;2.62;;;;;;;23.29;53.36;100992.16;1749200;81;21081;-48
2022/06/24 04:53:58;;;;;;;5.22;2.95;;;;;;;23.26;53.38;100992.86;1713896;83;21017;-50
2022/06/24 04:56:25;;;;;;;4.95;3.20;;;;;;;23.27;53.34;100994.54;1712266;83;21014;-49
2022/06/24 04:58:53;;;;;;;2.70;2.50;;;;;;;23.27;53.31;100995.87;1710996;83;21050;-49
2022/06/24 05:01:20;;;;;;;2.95;2.70;;;;;;;23.29;53.22;100993.95;1711166;83;21006;-49
2022/06/24 05:03:48;;;;;;;2.85;2.60;;;;;;;23.29;53.28;100987.31;1711152;83;21033;-48
2022/06/24 05:06:14;;;;;;;6.03;2.85;;;;;;;23.27;53.31;100983.92;1710906;83;21041;-50
2022/06/24 05:08:44;;;;;;;3.52;2.70;;;;;;;23.26;53.43;100983.56;1711836;83;21021;-50
2022/06/24 05:11:12;;;;;;;2.55;2.33;;;;;;;23.26;53.52;100980.91;1717769;83;21026;-50
2022/06/24 05:13:39;;;;;;;3.27;2.58;;;;;;;23.28;53.52;100993.13;1712904;83;21043;-49
2022/06/24 05:16:07;;;;;;;3.02;2.70;;;;;;;23.36;53.37;101001.43;1713084;83;21056;-53
2022/06/24 05:18:33;;;;;;;3.00;2.58;;;;;;;23.42;53.26;100998.81;1701210;83;21061;-50
2022/06/24 05:21:00;;;;;;;5.37;2.70;;;;;;;23.48;53.21;100994.39;1714181;83;20988;-50
2022/06/24 05:23:28;;;;;;;4.28;2.40;;;;;;;23.54;53.14;100993.95;1713348;82;21041;-48
2022/06/24 05:25:55;;;;;;;6.80;2.67;;;;;;;23.54;53.00;101000.59;1711438;83;21045;-52
2022/06/24 05:28:22;;;;;;;2.83;2.62;;;;;;;23.52;52.97;100999.84;1712844;83;21085;-49
2022/06/24 05:30:57;;;;;;;4.45;2.70;;;;;;;23.49;52.97;101000.09;1709343;83;21006;-50
2022/06/24 05:33:24;;;;;;;2.85;2.65;;;;;;;23.45;53.11;100999.94;1711882;83;21021;-50
2022/06/24 05:35:54;;;;;;;2.83;2.50;;;;;;;23.45;53.23;101001.27;1713996;83;21024;-49
2022/06/24 05:38:22;;;;;;;3.08;2.47;;;;;;;23.43;53.38;101002.67;1712899;83;21084;-50
2022/06/24 05:40:51;;;;;;;3.72;2.50;;;;;;;23.38;53.61;101002.17;1698189;83;21526;-49
2022/06/24 05:43:19;;;;;;;3.80;3.05;;;;;;;23.38;53.63;100996.86;1713159;83;21005;-48
2022/06/24 05:45:46;;;;;;;3.05;2.75;;;;;;;23.38;53.50;101001.31;1709618;83;21037;-51
2022/06/24 05:48:15;;;;;;;2.85;2.62;;;;;;;23.40;53.43;101002.05;1717329;83;21482;-51
2022/06/24 05:50:42;;;;;;;3.80;2.83;;;;;;;23.41;53.43;100997.95;1708344;83;21014;-49
2022/06/24 05:56:00;;;;;;;4.03;2.35;;;;;;;23.45;53.40;101005.25;1737935;80;21487;-52
2022/06/24 05:58:29;;;;;;;3.02;2.70;;;;;;;23.53;53.22;101010.86;1657249;85;21019;-51
2022/06/24 06:00:56;;;;;;;2.75;2.35;;;;;;;23.57;52.98;101009.68;1619829;88;21503;-49
2022/06/24 06:03:25;;;;;;;3.10;2.50;;;;;;;23.60;52.91;101009.45;1662640;85;21034;-52
2022/06/24 06:05:52;;;;;;;2.62;2.20;;;;;;;23.61;52.64;101015.14;1617072;88;21524;-53
2022/06/24 06:08:19;;;;;;;2.80;2.50;;;;;;;23.56;52.60;101011.95;1662144;86;21030;-51
2022/06/24 06:10:48;;;;;;;3.72;2.47;;;;;;;23.55;52.44;101016.91;1618711;88;21095;-49
2022/06/24 06:13:15;;;;;;;4.15;2.55;;;;;;;23.51;52.64;101018.09;1663214;86;21098;-50
2022/06/24 06:15:45;;;;;;;3.08;2.60;;;;;;;23.47;53.00;101011.30;1619496;88;21043;-51
2022/06/24 06:18:12;;;;;;;5.85;2.58;;;;;;;23.47;52.82;101008.64;1661371;85;21035;-49
2022/06/24 06:20:39;;;;;;;3.58;2.80;;;;;;;23.45;52.85;101013.22;1616932;88;21055;-52
2022/06/24 06:23:06;;;;;;;3.77;2.25;;;;;;;23.46;53.02;101012.24;1660515;85;21535;-49
2022/06/24 06:25:33;;;;;;;3.80;2.42;;;;;;;23.45;53.22;101013.22;1616799;88;21099;-51
2022/06/24 06:28:02;;;;;;;2.60;2.30;;;;;;;23.44;52.94;101002.20;1660507;85;21023;-50
2022/06/24 06:30:30;;;;;;;3.02;2.42;;;;;;;23.44;52.70;101011.50;1616782;88;21079;-49
2022/06/24 06:32:57;;;;;;;3.47;2.55;;;;;;;23.45;52.72;101003.92;1617859;88;21056;-53
2022/06/24 06:35:24;;;;;;;2.50;2.27;;;;;;;23.53;52.59;101008.67;1617126;88;21072;-51
2022/06/24 06:37:51;;;;;;;5.33;2.58;;;;;;;23.55;52.60;101007.61;1615516;88;21612;-50
2022/06/24 06:40:18;;;;;;;3.02;2.70;;;;;;;23.54;52.44;101009.03;1616345;88;21075;-51
2022/06/24 06:42:45;;;;;;;6.30;2.50;;;;;;;23.54;52.55;101015.20;1617360;88;21147;-52
2022/06/24 06:45:13;;;;;;;2.77;2.45;;;;;;;23.51;52.61;101014.11;1606541;88;21556;-50
2022/06/24 06:47:42;;;;;;;2.37;2.15;;;;;;;23.56;52.63;101011.09;1624934;87;21482;-52
2022/06/24 06:50:09;;;;;;;2.77;2.58;;;;;;;23.58;52.42;101013.16;1614264;88;21132;-50
2022/06/24 06:52:36;;;;;;;2.62;2.42;;;;;;;23.64;52.34;101012.75;1617978;88;21548;-51
2022/06/24 06:55:04;;;;;;;2.65;2.15;;;;;;;23.74;52.24;101009.80;1645986;85;21120;-51
2022/06/24 06:57:31;;;;;;;6.28;2.70;;;;;;;23.85;51.80;101018.68;1678037;85;21498;-49
2022/06/24 06:59:58;;;;;;;2.70;2.33;;;;;;;23.91;51.69;101019.56;1672024;85;21583;-50
2022/06/24 07:02:25;;;;;;;2.50;2.17;;;;;;;24.00;51.66;101026.02;1674716;85;21027;-51
2022/06/24 07:04:52;;;;;;;4.65;2.62;;;;;;;24.11;51.80;101026.95;1687187;83;21570;-50
2022/06/24 07:07:19;;;;;;;3.10;2.47;;;;;;;24.27;51.60;101023.17;1682145;83;21046;-49
2022/06/24 07:09:47;;;;;;;3.67;2.50;;;;;;;24.35;51.19;101024.78;1676873;85;21034;-49
2022/06/24 07:12:13;;;;;;;2.62;2.42;;;;;;;24.41;50.98;101020.33;1674351;85;21082;-50
2022/06/24 07:14:43;;;;;;;3.12;2.20;;;;;;;24.48;50.96;101017.59;1675124;85;21059;-51
2022/06/24 07:17:11;;;;;;;3.53;2.70;;;;;;;24.54;50.81;101015.80;1674580;85;21058;-49
2022/06/24 07:19:38;;;;;;;2.60;2.40;;;;;;;24.60;50.82;101012.20;1680404;85;21252;-50
2022/06/24 07:22:06;;;;;;;2.50;2.17;;;;;;;24.67;50.49;101013.88;1673123;85;21078;-50
2022/06/24 07:24:33;;;;;;;2.98;2.35;;;;;;;24.68;50.49;101011.13;1677527;85;21550;-51
2022/06/24 07:27:08;;;;;;;3.92;2.58;;;;;;;24.69;50.54;101012.81;1705099;82;21070;-49
2022/06/24 07:29:35;;;;;;;2.87;2.62;;;;;;;24.73;50.64;101018.77;1741393;81;20998;-53
2022/06/24 07:32:05;;;;;;;3.15;2.50;;;;;;;24.77;50.38;101020.27;1705809;83;21498;-51
2022/06/24 07:34:33;;;;;;;4.10;2.65;;;;;;;24.77;50.40;101017.59;1707206;82;21040;-51
2022/06/24 07:37:01;;;;;;;4.53;2.77;;;;;;;24.74;50.31;101012.50;1708774;83;21049;-49
2022/06/24 07:39:29;;;;;;;4.25;2.50;;;;;;;24.72;50.27;101012.59;1744574;81;21007;-52
2022/06/24 07:41:56;;;;;;;3.08;2.80;;;;;;;24.70;50.37;101013.66;1711101;83;21389;-51
2022/06/24 07:44:23;;;;;;;4.53;2.60;;;;;;;24.68;50.22;101014.27;1706436;83;20996;-52
2022/06/24 07:46:50;;;;;;;2.55;2.35;;;;;;;24.68;50.01;101010.27;1744234;81;21038;-50
2022/06/24 07:49:17;;;;;;;3.12;2.85;;;;;;;24.70;50.08;101013.66;1743242;81;21471;-51
2022/06/24 07:51:44;;;;;;;4.17;2.60;;;;;;;24.72;50.19;101017.05;1745043;80;21058;-50
2022/06/24 07:54:11;;;;;;;5.05;2.75;;;;;;;24.79;50.02;101015.67;1746845;80;21007;-49
2022/06/24 07:56:56;;;;;;;3.65;2.77;;;;;;;24.83;49.94;101009.14;1746634;80;21474;-50
2022/06/24 07:59:27;;;;;;;4.70;2.90;;;;;;;24.81;50.03;101008.41;1746589;80;21495;-52
2022/06/24 08:01:54;;;;;;;3.65;2.90;;;;;;;24.80;50.16;101006.70;1747238;80;21065;-52
2022/06/24 08:04:22;;;;;;;5.15;2.72;;;;;;;24.96;50.19;101023.19;1746729;80;21045;-51
2022/06/24 08:06:52;;;;;;;3.80;2.87;;;;;;;24.96;50.19;101023.19;1748819;80;21533;-51
2022/06/24 08:09:20;;;;;;;4.42;3.42;;;;;;;25.03;49.67;101020.42;1746457;80;21506;-51
2022/06/24 08:11:48;;;;;;;3.50;3.00;;;;;;;25.09;49.64;101031.08;1745814;80;21022;-52
2022/06/24 08:14:14;;;;;;;3.10;2.80;;;;;;;25.12;49.66;101034.38;1709450;83;21496;-51
2022/06/24 08:16:42;;;;;;;3.95;3.45;;;;;;;25.16;49.60;101029.64;1715430;83;21078;-52
2022/06/24 08:19:09;;;;;;;3.50;3.20;;;;;;;25.17;49.56;101025.52;1713456;83;20998;-51
2022/06/24 08:21:37;;;;;;;4.60;2.98;;;;;;;25.17;49.56;101025.52;1704662;83;20994;-50
2022/06/24 08:24:06;;;;;;;3.72;3.42;;;;;;;25.18;49.55;101027.71;1710700;83;20986;-51
2022/06/24 08:26:33;;;;;;;3.70;3.40;;;;;;;25.17;49.56;101029.52;1712880;83;20994;-51
2022/06/24 08:29:00;;;;;;;3.35;3.05;;;;;;;25.16;49.62;101025.17;1713998;83;21022;-50
2022/06/24 08:31:27;;;;;;;3.50;3.00;;;;;;;25.19;49.35;101027.58;1713882;83;21085;-50
2022/06/24 08:33:54;;;;;;;3.15;2.87;;;;;;;25.26;49.31;101022.63;1711415;83;21566;-51
2022/06/24 08:36:26;;;;;;;3.87;2.95;;;;;;;25.32;49.29;101028.33;1712703;83;21082;-51
2022/06/24 08:38:54;;;;;;;4.95;3.22;;;;;;;25.44;48.97;101028.72;1712295;83;21069;-51
2022/06/24 08:41:26;;;;;;;4.28;3.05;;;;;;;25.62;48.67;101029.92;1724215;83;21026;-50
2022/06/24 08:43:54;;;;;;;4.25;3.58;;;;;;;25.64;48.86;101029.31;1717817;83;21504;-50
2022/06/24 08:46:22;;;;;;;3.47;3.02;;;;;;;25.64;48.86;101029.31;1712858;83;21014;-50
2022/06/24 08:48:49;;;;;;;3.60;3.33;;;;;;;25.69;49.63;101032.47;1714228;83;21065;-52
2022/06/24 08:51:16;;;;;;;3.60;3.30;;;;;;;25.76;49.84;101030.98;1704003;83;21534;-49
2022/06/24 08:56:13;;;;;;;4.25;3.67;;;;;;;25.72;49.67;101029.54;1685884;84;21024;-51
2022/06/24 08:58:40;;;;;;;4.78;3.37;;;;;;;25.76;48.97;101022.98;1723291;82;21050;-52
2022/06/24 09:01:10;;;;;;;4.60;3.40;;;;;;;25.81;49.15;101024.81;1723274;82;21041;-51
2022/06/24 09:03:37;;;;;;;3.50;3.20;;;;;;;25.89;49.06;101028.19;1718920;82;21026;-50
2022/06/24 09:06:12;;;;;;;3.83;3.50;;;;;;;25.91;48.93;101024.91;1723125;82;21025;-52
2022/06/24 09:08:39;;;;;;;3.25;3.05;;;;;;;25.93;48.93;101026.11;1723604;83;21018;-51
2022/06/24 09:11:07;;;;;;;3.58;3.27;;;;;;;25.94;48.83;101020.67;1699777;83;21034;-50
2022/06/24 09:13:50;;;;;;;5.08;3.40;;;;;;;25.96;48.65;101012.54;1723142;82;21038;-51
2022/06/24 09:16:18;;;;;;;3.47;3.17;;;;;;;25.98;48.83;101012.78;1673672;85;21074;-51
2022/06/24 09:18:57;;;;;;;3.42;3.00;;;;;;;25.99;48.94;101018.97;1670645;85;21083;-51
2022/06/24 09:21:28;;;;;;;3.65;3.02;;;;;;;25.97;49.15;101011.55;1619591;88;21068;-50
2022/06/24 09:23:57;;;;;;;5.80;3.45;;;;;;;25.99;48.83;101014.97;1621142;87;21644;-54
2022/06/24 09:26:41;;;;;;;4.03;3.40;;;;;;;26.03;48.52;101012.41;1623188;88;21070;-51
2022/06/24 09:29:12;;;;;;;3.17;2.87;;;;;;;26.08;48.56;101010.23;1622910;87;21575;-52
2022/06/24 09:31:39;;;;;;;4.05;3.40;;;;;;;26.07;48.54;101012.52;1623187;87;21077;-50
2022/06/24 09:34:12;;;;;;;4.42;3.37;;;;;;;26.10;48.39;101016.28;1622633;87;21550;-50
2022/06/24 09:36:41;;;;;;;5.00;3.12;;;;;;;26.08;48.38;101013.75;1616758;88;21471;-51
2022/06/24 09:39:15;;;;;;;3.90;3.20;;;;;;;26.07;48.31;101009.86;1620394;88;21034;-50
2022/06/24 09:41:47;;;;;;;7.78;3.45;;;;;;;26.03;48.01;101011.08;1613409;87;21075;-49
2022/06/24 09:44:14;;;;;;;4.78;3.60;;;;;;;25.98;47.62;101005.27;1599355;89;21068;-52
2022/06/24 09:46:43;;;;;;;4.42;3.65;;;;;;;25.93;47.76;101012.77;1559497;91;21118;-49
2022/06/24 09:49:17;;;;;;;4.25;3.75;;;;;;;25.92;47.71;101005.77;1599495;90;21010;-50
2022/06/24 09:51:44;;;;;;;7.55;4.10;;;;;;;25.95;47.91;101000.16;1559043;91;21046;-51
2022/06/24 09:54:14;;;;;;;4.15;3.67;;;;;;;25.99;47.93;100994.46;1599174;90;21105;-52
2022/06/24 09:56:42;;;;;;;4.85;3.62;;;;;;;26.08;47.93;100987.56;1521357;93;21455;-49
2022/06/24 10:01:54;;;;;;;6.35;5.20;;;;;;;26.20;47.98;100974.54;1512544;94;21085;-50
2022/06/24 10:04:22;;;;;;;8.80;4.75;;;;;;;26.24;48.31;100971.97;1503253;94;21121;-51
2022/06/24 10:06:49;;;;;;;5.65;4.42;;;;;;;26.23;48.20;100972.48;1511937;94;21101;-52
2022/06/24 10:09:27;;;;;;;6.53;4.37;;;;;;;26.22;47.93;100972.59;1512794;94;21113;-50
2022/06/24 10:11:55;;;;;;;5.83;4.28;;;;;;;26.23;48.04;100972.97;1496960;94;21088;-52
2022/06/24 10:14:24;;;;;;;4.85;4.35;;;;;;;26.24;48.13;100968.83;1516464;94;21092;-51
2022/06/24 10:16:51;;;;;;;5.15;4.30;;;;;;;26.27;48.17;100974.41;1522076;91;21569;-51
2022/06/24 10:19:19;;;;;;;7.08;4.22;;;;;;;26.29;47.97;100975.97;1562501;91;21045;-52
2022/06/24 10:21:48;;;;;;;6.45;3.35;;;;;;;26.32;48.02;100972.18;1554099;90;21056;-52
2022/06/24 10:24:16;;;;;;;3.85;3.40;;;;;;;26.34;48.21;100970.23;1554005;91;21048;-52
2022/06/24 10:26:46;;;;;;;4.28;3.65;;;;;;;26.37;48.44;100961.50;1553791;91;21571;-51
2022/06/24 10:29:21;;;;;;;4.05;3.72;;;;;;;26.41;48.60;100963.41;1554172;91;21119;-51
2022/06/24 10:31:54;;;;;;;4.90;3.72;;;;;;;26.44;48.81;100971.17;1520926;94;21110;-52
2022/06/24 10:34:32;;;;;;;4.00;3.58;;;;;;;26.50;49.13;100970.66;1513333;94;21692;-52
2022/06/24 10:37:12;;;;;;;3.92;3.35;;;;;;;26.60;49.18;100972.39;1517926;94;21190;-51
2022/06/24 10:39:49;;;;;;;5.20;3.30;;;;;;;26.72;49.06;100971.03;1522690;94;21098;-51
2022/06/24 10:42:20;;;;;;;3.60;3.30;;;;;;;26.82;48.47;100970.12;1505791;95;21162;-52
2022/06/24 10:44:57;;;;;;;5.80;3.62;;;;;;;26.86;48.27;100964.87;1482241;97;21103;-51
2022/06/24 10:47:27;;;;;;;6.50;3.47;;;;;;;26.90;48.26;100958.28;1485021;95;21079;-51
2022/06/24 10:50:01;;;;;;;5.45;3.27;;;;;;;26.94;48.12;100959.71;1491029;95;21177;-52
2022/06/24 10:55:24;;;;;;;4.10;3.00;;;;;;;26.96;47.87;100955.08;1484794;96;21118;-51
2022/06/24 10:57:57;;;;;;;6.47;2.67;;;;;;;26.96;47.78;100955.08;1502557;95;21114;-50
2022/06/24 11:00:28;;;;;;;2.83;2.58;;;;;;;27.01;47.73;100950.68;1512175;94;21588;-52
2022/06/24 11:03:06;;;;;;;2.80;2.40;;;;;;;27.03;47.69;100940.23;1480939;96;21130;-51
2022/06/24 11:05:39;;;;;;;3.95;2.60;;;;;;;27.05;47.70;100946.28;1475136;96;21084;-50
2022/06/24 11:08:18;;;;;;;3.60;2.40;;;;;;;27.04;47.39;100941.91;1475155;96;21096;-50
2022/06/24 11:10:47;;;;;;;2.47;2.25;;;;;;;27.08;47.30;100939.83;1464389;96;21198;-50
2022/06/24 11:13:16;;;;;;;3.45;2.60;;;;;;;27.11;47.01;100936.88;1440772;99;21135;-49
2022/06/24 11:15:58;;;;;;;4.15;2.60;;;;;;;27.14;47.07;100932.09;1465121;97;21120;-50
2022/06/24 11:18:31;;;;;;;2.83;2.62;;;;;;;27.17;47.35;100931.84;1456000;97;21149;-52
2022/06/24 11:21:05;;;;;;;5.80;2.72;;;;;;;27.21;47.23;100930.59;1441123;99;21547;-53
2022/06/24 11:23:34;;;;;;;3.25;2.77;;;;;;;27.24;47.07;100927.63;1460444;97;21100;-52
2022/06/24 11:26:12;;;;;;;4.53;2.72;;;;;;;27.26;47.08;100920.36;1465019;97;21104;-52
2022/06/24 11:28:39;;;;;;;3.35;2.30;;;;;;;27.28;47.09;100921.07;1412585;100;21207;-53
2022/06/24 11:31:24;;;;;;;2.47;2.27;;;;;;;27.32;46.89;100915.81;1412688;100;21657;-51
2022/06/24 11:34:08;;;;;;;4.85;2.80;;;;;;;27.37;46.72;100911.39;1486116;96;21692;-53
2022/06/24 11:36:38;;;;;;;5.33;3.35;;;;;;;27.43;46.63;100906.84;1533057;92;21101;-50
2022/06/24 11:39:07;;;;;;;3.12;2.75;;;;;;;27.47;46.71;100911.44;1549288;90;21540;-51
2022/06/24 11:41:39;;;;;;;4.80;3.10;;;;;;;27.53;46.77;100916.23;1574766;90;21043;-51
2022/06/24 11:44:06;;;;;;;3.12;2.92;;;;;;;27.60;46.14;100930.72;1572871;90;21071;-52
2022/06/24 11:46:33;;;;;;;4.42;3.08;;;;;;;27.68;45.72;100933.55;1573327;91;21047;-50
2022/06/24 11:49:11;;;;;;;4.28;2.95;;;;;;;27.71;45.43;100930.61;1574465;90;21083;-49